createdAt,value
2022-08-25T00:01:54.994Z,100737.67
2022-08-25T00:04:27.197Z,100737.74
2022-08-25T00:07:02.909Z,100740.21
2022-08-25T00:09:35.331Z,100735.00
2022-08-25T00:12:07.902Z,100733.11
2022-08-25T00:14:40.003Z,100731.54
2022-08-25T00:17:10.696Z,100733.23
2022-08-25T00:19:41.578Z,100730.38
2022-08-25T00:22:12.248Z,100729.48
2022-08-25T00:24:43.002Z,100728.23
2022-08-25T00:27:14.166Z,100730.14
2022-08-25T00:29:44.917Z,100731.05
2022-08-25T00:32:15.717Z,100729.45
2022-08-25T00:34:47.199Z,100734.14
2022-08-25T00:37:17.870Z,100729.95
2022-08-25T00:39:49.031Z,100727.50
2022-08-25T00:42:21.009Z,100727.41
2022-08-25T00:44:52.970Z,100724.27
2022-08-25T00:47:22.441Z,100723.44
2022-08-25T00:49:59.139Z,100721.50
2022-08-25T00:52:32.611Z,100722.24
2022-08-25T00:55:06.578Z,100717.15
2022-08-25T00:57:43.876Z,100718.09
2022-08-25T01:00:20.575Z,100714.76
2022-08-25T01:02:51.446Z,100712.10
2022-08-25T01:05:22.275Z,100713.89
2022-08-25T01:07:53.906Z,100716.21
2022-08-25T01:10:30.515Z,100715.89
2022-08-25T01:13:07.778Z,100712.23
2022-08-25T01:15:48.722Z,100710.86
2022-08-25T01:18:17.862Z,100707.36
2022-08-25T01:20:53.819Z,100711.23
2022-08-25T01:23:25.828Z,100712.31
2022-08-25T01:26:02.994Z,100712.99
2022-08-25T01:28:33.887Z,100715.96
2022-08-25T01:31:05.140Z,100712.80
2022-08-25T01:33:55.032Z,100713.39
2022-08-25T01:36:27.245Z,100717.21
2022-08-25T01:38:58.547Z,100714.73
2022-08-25T01:41:37.759Z,100711.48
2022-08-25T01:44:09.051Z,100712.77
2022-08-25T01:46:47.272Z,100711.14
2022-08-25T01:49:17.932Z,100708.36
2022-08-25T01:51:56.813Z,100709.58
2022-08-25T01:54:27.478Z,100708.23
2022-08-25T01:56:58.639Z,100708.08
2022-08-25T01:59:29.914Z,100704.34
2022-08-25T02:02:00.862Z,100708.15
2022-08-25T02:04:35.903Z,100710.73
2022-08-25T02:07:08.973Z,100711.30
2022-08-25T02:09:40.638Z,100710.46
2022-08-25T02:12:12.320Z,100710.35
2022-08-25T02:14:43.058Z,100711.54
2022-08-25T02:17:13.733Z,100705.48
2022-08-25T02:19:44.364Z,100706.02
2022-08-25T02:22:15.133Z,100709.23
2022-08-25T02:24:45.836Z,100708.35
2022-08-25T02:27:16.539Z,100702.56
2022-08-25T02:29:47.299Z,100700.33
2022-08-25T02:32:18.033Z,100702.44
2022-08-25T02:34:48.702Z,100702.00
2022-08-25T02:37:20.187Z,100698.09
2022-08-25T02:39:50.883Z,100698.95
2022-08-25T02:42:22.033Z,100698.45
2022-08-25T02:44:53.911Z,100703.30
2022-08-25T02:47:26.778Z,100705.15
2022-08-25T02:49:58.139Z,100710.75
2022-08-25T02:52:28.772Z,100707.00
2022-08-25T02:54:59.783Z,100702.94
2022-08-25T02:57:30.605Z,100701.22
2022-08-25T03:00:01.471Z,100698.98
2022-08-25T03:02:32.409Z,100695.65
2022-08-25T03:05:03.291Z,100696.75
2022-08-25T03:07:35.471Z,100694.09
2022-08-25T03:10:11.574Z,100691.34
2022-08-25T03:12:42.634Z,100693.50
2022-08-25T03:15:17.222Z,100690.55
2022-08-25T03:17:50.541Z,100680.59
2022-08-25T03:20:22.128Z,100684.06
2022-08-25T03:22:53.400Z,100686.59
2022-08-25T03:25:41.898Z,100681.82
2022-08-25T03:28:12.603Z,100680.99
2022-08-25T03:30:44.484Z,100680.63
2022-08-25T03:33:15.233Z,100682.92
2022-08-25T03:35:46.154Z,100682.14
2022-08-25T03:38:17.738Z,100683.55
2022-08-25T03:40:49.049Z,100676.54
2022-08-25T03:43:19.864Z,100682.25
2022-08-25T03:45:50.976Z,100677.14
2022-08-25T03:48:21.738Z,100675.61
2022-08-25T03:50:54.834Z,100676.95
2022-08-25T03:53:25.550Z,100681.93
2022-08-25T03:55:57.740Z,100676.30
2022-08-25T03:58:28.612Z,100679.14
2022-08-25T04:01:00.571Z,100678.30
2022-08-25T04:03:29.856Z,100675.05
2022-08-25T04:06:04.015Z,100670.78
2022-08-25T04:08:34.764Z,100672.13
2022-08-25T04:11:11.011Z,100671.14
2022-08-25T04:13:43.416Z,100675.34
2022-08-25T04:16:15.884Z,100673.72
2022-08-25T04:18:47.975Z,100673.84
2022-08-25T04:21:18.252Z,100675.92
2022-08-25T04:23:51.034Z,100674.74
2022-08-25T04:26:23.890Z,100676.98
2022-08-25T04:28:55.313Z,100677.74
2022-08-25T04:31:26.113Z,100678.51
2022-08-25T04:33:57.098Z,100672.39
2022-08-25T04:36:28.131Z,100675.15
2022-08-25T04:38:59.545Z,100675.44
2022-08-25T04:41:31.311Z,100675.48
2022-08-25T04:44:02.858Z,100670.39
2022-08-25T04:46:35.619Z,100669.21
2022-08-25T04:49:06.883Z,100669.54
2022-08-25T04:51:40.756Z,100668.27
2022-08-25T04:54:13.897Z,100672.70
2022-08-25T04:56:45.042Z,100679.88
2022-08-25T04:59:18.622Z,100678.66
2022-08-25T05:01:50.997Z,100679.64
2022-08-25T05:04:28.560Z,100681.86
2022-08-25T05:06:59.970Z,100683.30
2022-08-25T05:09:32.428Z,100683.51
2022-08-25T05:12:04.787Z,100683.70
2022-08-25T05:14:36.368Z,100688.63
2022-08-25T05:17:08.083Z,100689.36
2022-08-25T05:19:38.805Z,100687.85
2022-08-25T05:22:10.295Z,100686.17
2022-08-25T05:24:41.016Z,100689.58
2022-08-25T05:27:11.662Z,100689.95
2022-08-25T05:29:42.538Z,100690.40
2022-08-25T05:32:13.435Z,100692.79
2022-08-25T05:34:44.151Z,100695.90
2022-08-25T05:37:15.014Z,100697.73
2022-08-25T05:39:45.814Z,100697.55
2022-08-25T05:42:16.568Z,100696.07
2022-08-25T05:44:47.423Z,100691.34
2022-08-25T05:47:18.276Z,100697.18
2022-08-25T05:49:48.945Z,100694.40
2022-08-25T05:52:20.393Z,100696.72
2022-08-25T05:54:51.228Z,100692.38
2022-08-25T05:57:22.031Z,100689.02
2022-08-25T05:59:53.021Z,100684.18
2022-08-25T06:02:44.139Z,100681.37
2022-08-25T06:05:18.068Z,100680.59
2022-08-25T06:07:50.372Z,100674.85
2022-08-25T06:10:22.917Z,100676.35
2022-08-25T06:12:53.610Z,100673.65
2022-08-25T06:15:28.265Z,100670.80
2022-08-25T06:18:05.469Z,100672.80
2022-08-25T06:20:37.069Z,100676.21
2022-08-25T06:23:07.754Z,100676.95
2022-08-25T06:25:40.225Z,100680.77
2022-08-25T06:28:10.984Z,100678.79
2022-08-25T06:30:41.720Z,100673.31
2022-08-25T06:33:12.693Z,100674.31
2022-08-25T06:35:45.659Z,100674.91
2022-08-25T06:38:16.316Z,100674.99
2022-08-25T06:40:49.790Z,100671.80
2022-08-25T06:43:20.849Z,100660.80
2022-08-25T06:45:51.669Z,100663.38
2022-08-25T06:48:23.873Z,100664.02
2022-08-25T06:50:54.569Z,100668.17
2022-08-25T06:53:25.279Z,100666.52
2022-08-25T06:56:04.575Z,100668.00
2022-08-25T06:58:37.557Z,100669.54
2022-08-25T07:01:19.718Z,100668.23
2022-08-25T07:03:52.542Z,100669.57
2022-08-25T07:06:23.718Z,100667.09
2022-08-25T07:08:54.897Z,100667.89
2022-08-25T07:11:26.499Z,100670.73
2022-08-25T07:13:57.238Z,100666.09
2022-08-25T07:16:30.402Z,100668.19
2022-08-25T07:19:03.030Z,100668.96
2022-08-25T07:21:35.614Z,100669.66
2022-08-25T07:24:10.719Z,100664.34
2022-08-25T07:26:43.485Z,100666.18
2022-08-25T07:29:17.244Z,100663.88
2022-08-25T07:31:48.352Z,100659.73
2022-08-25T07:34:37.548Z,100657.63
2022-08-25T07:37:09.766Z,100660.27
2022-08-25T07:39:40.583Z,100656.63
2022-08-25T07:42:13.473Z,100658.05
2022-08-25T07:44:44.200Z,100656.63
2022-08-25T07:47:16.079Z,100651.05
2022-08-25T07:49:46.814Z,100646.88
2022-08-25T07:52:17.902Z,100654.17
2022-08-25T07:54:48.559Z,100652.51
2022-08-25T07:57:19.679Z,100654.25
2022-08-25T07:59:50.634Z,100655.15
2022-08-25T08:02:22.023Z,100654.27
2022-08-25T08:04:56.415Z,100646.71
2022-08-25T08:07:42.310Z,100646.04
2022-08-25T08:13:07.998Z,100648.11
2022-08-25T08:15:38.881Z,100648.63
2022-08-25T08:18:10.580Z,100646.86
2022-08-25T08:20:43.072Z,100642.86
2022-08-25T08:23:14.867Z,100647.73
2022-08-25T08:25:45.775Z,100643.80
2022-08-25T08:28:16.899Z,100636.36
2022-08-25T08:30:53.627Z,100637.02
2022-08-25T08:33:27.661Z,100633.79
2022-08-25T08:36:05.294Z,100628.91
2022-08-25T08:38:37.273Z,100632.20
2022-08-25T08:42:07.216Z,100630.75
2022-08-25T08:44:37.156Z,100620.61
2022-08-25T08:47:19.958Z,100620.89
2022-08-25T08:50:03.961Z,100617.88
2022-08-25T08:52:44.013Z,100613.85
2022-08-25T08:55:24.127Z,100612.44
2022-08-25T08:57:56.600Z,100610.98
2022-08-25T09:00:32.696Z,100611.36
2022-08-25T09:03:08.974Z,100606.71
2022-08-25T09:05:48.427Z,100600.61
2022-08-25T09:08:20.604Z,100600.19
2022-08-25T09:11:02.627Z,100592.27
2022-08-25T09:13:46.950Z,100596.43
2022-08-25T09:16:43.743Z,100594.98
2022-08-25T09:19:32.769Z,100596.71
2022-08-25T09:22:36.018Z,100591.15
2022-08-25T09:25:08.686Z,100586.64
2022-08-25T09:27:48.331Z,100585.02
2022-08-25T09:30:21.012Z,100581.75
2022-08-25T09:33:03.839Z,100579.05
2022-08-25T09:35:40.781Z,100575.49
2022-08-25T09:38:13.855Z,100567.08
2022-08-25T09:40:47.370Z,100566.34
2022-08-25T09:43:25.499Z,100569.36
2022-08-25T09:46:02.783Z,100563.31
2022-08-25T09:48:39.789Z,100558.45
2022-08-25T09:51:21.979Z,100564.02
2022-08-25T09:53:58.131Z,100559.74
2022-08-25T09:56:32.212Z,100557.69
2022-08-25T09:59:34.590Z,100553.24
2022-08-25T10:02:23.680Z,100547.11
2022-08-25T10:04:54.541Z,100542.09
2022-08-25T10:07:29.946Z,100532.65
2022-08-25T10:10:03.350Z,100525.23
2022-08-25T10:12:42.550Z,100530.45
2022-08-25T10:15:29.043Z,100531.94
2022-08-25T10:18:23.466Z,100522.83
2022-08-25T10:21:09.410Z,100516.38
2022-08-25T10:23:47.371Z,100512.26
2022-08-25T10:26:34.916Z,100504.25
2022-08-25T10:29:18.897Z,100504.75
2022-08-25T10:31:59.388Z,100496.65
2022-08-25T10:34:44.692Z,100497.42
2022-08-25T10:37:25.325Z,100493.17
2022-08-25T10:40:04.329Z,100492.45
2022-08-25T10:42:42.741Z,100492.15
2022-08-25T10:45:39.230Z,100485.84
2022-08-25T10:48:34.117Z,100480.63
2022-08-25T10:51:18.676Z,100479.12
2022-08-25T10:53:58.347Z,100473.35
2022-08-25T10:56:34.421Z,100474.41
2022-08-25T10:59:29.829Z,100471.00
2022-08-25T11:02:42.326Z,100469.02
2022-08-25T11:05:24.537Z,100467.63
2022-08-25T11:08:02.432Z,100462.98
2022-08-25T11:10:42.159Z,100464.08
2022-08-25T11:13:22.154Z,100462.95
2022-08-25T11:16:17.441Z,100457.66
2022-08-25T11:18:55.363Z,100449.11
2022-08-25T11:21:35.885Z,100447.95
2022-08-25T11:24:19.803Z,100445.24
2022-08-25T11:26:54.975Z,100440.88
2022-08-25T11:29:33.604Z,100437.52
2022-08-25T11:32:05.743Z,100435.67
2022-08-25T11:34:42.996Z,100436.52
2022-08-25T11:37:25.544Z,100440.88
2022-08-25T11:40:25.666Z,100432.58
2022-08-25T11:43:08.263Z,100432.78
2022-08-25T11:45:55.732Z,100433.91
2022-08-25T11:48:36.477Z,100421.73
2022-08-25T11:51:09.951Z,100428.38
2022-08-25T11:53:42.777Z,100428.36
2022-08-25T11:56:31.652Z,100423.97
2022-08-25T11:59:04.416Z,100418.33
2022-08-25T12:02:05.378Z,100413.52
2022-08-25T12:04:44.738Z,100411.52
2022-08-25T12:08:13.338Z,100410.37
2022-08-25T12:11:10.573Z,100401.65
2022-08-25T12:13:48.285Z,100401.80
2022-08-25T12:16:41.984Z,100396.02
2022-08-25T12:19:49.215Z,100393.73
2022-08-25T12:23:01.404Z,100390.52
2022-08-25T12:25:54.845Z,100384.29
2022-08-25T12:28:43.464Z,100381.17
2022-08-25T12:31:40.534Z,100380.86
2022-08-25T12:34:24.338Z,100378.25
2022-08-25T12:37:06.443Z,100379.93
2022-08-25T12:39:44.427Z,100374.62
2022-08-25T12:42:31.327Z,100368.61
2022-08-25T12:45:33.425Z,100370.85
2022-08-25T12:48:35.283Z,100366.96
2022-08-25T12:51:09.714Z,100365.23
2022-08-25T12:53:42.740Z,100366.77
2022-08-25T12:56:30.519Z,100359.86
2022-08-25T12:59:13.089Z,100355.64
2022-08-25T13:02:09.252Z,100360.24
2022-08-25T13:05:07.247Z,100356.37
2022-08-25T13:07:59.758Z,100345.63
2022-08-25T13:10:47.554Z,100352.60
2022-08-25T13:13:37.885Z,100346.08
2022-08-25T13:16:18.041Z,100342.84
2022-08-25T13:18:51.449Z,100340.52
2022-08-25T13:21:29.121Z,100339.15
2022-08-25T13:24:05.593Z,100338.66
2022-08-25T13:26:48.290Z,100331.71
2022-08-25T13:29:24.456Z,100329.79
2022-08-25T13:31:58.616Z,100332.21
2022-08-25T13:34:35.228Z,100325.61
2022-08-25T13:37:29.516Z,100327.08
2022-08-25T13:40:17.791Z,100320.16
2022-08-25T13:42:55.868Z,100317.61
2022-08-25T13:45:29.962Z,100320.01
2022-08-25T13:48:00.785Z,100318.48
2022-08-25T13:50:37.857Z,100316.85
2022-08-25T13:53:12.867Z,100317.58
2022-08-25T13:55:54.816Z,100312.08
2022-08-25T13:58:39.664Z,100306.91
2022-08-25T14:01:22.707Z,100304.63
2022-08-25T14:04:31.831Z,100302.52
2022-08-25T14:07:25.457Z,100304.50
2022-08-25T14:09:58.952Z,100304.38
2022-08-25T14:12:40.154Z,100303.21
2022-08-25T14:15:29.562Z,100307.31
2022-08-25T14:18:10.240Z,100301.88
2022-08-25T14:20:50.551Z,100299.92
2022-08-25T14:23:24.227Z,100297.66
2022-08-25T14:25:56.708Z,100296.50
2022-08-25T14:28:29.391Z,100295.17
2022-08-25T14:31:06.750Z,100297.73
2022-08-25T14:33:42.289Z,100297.20
2022-08-25T14:36:14.495Z,100287.02
2022-08-25T14:38:55.029Z,100285.88
2022-08-25T14:41:27.633Z,100281.42
2022-08-25T14:43:58.344Z,100281.11
2022-08-25T14:46:32.048Z,100278.13
2022-08-25T14:49:05.751Z,100272.75
2022-08-25T14:51:39.738Z,100272.59
2022-08-25T14:54:15.214Z,100268.66
2022-08-25T14:56:48.516Z,100269.65
2022-08-25T14:59:19.875Z,100266.00
2022-08-25T15:01:50.808Z,100260.80
2022-08-25T15:04:23.645Z,100257.62
2022-08-25T15:07:00.175Z,100256.23
2022-08-25T15:09:33.633Z,100256.95
2022-08-25T15:12:05.058Z,100254.21
2022-08-25T15:14:36.767Z,100253.66
2022-08-25T15:17:08.891Z,100256.36
2022-08-25T15:19:40.618Z,100260.39
2022-08-25T15:22:11.968Z,100258.41
2022-08-25T15:24:43.013Z,100261.44
2022-08-25T15:27:15.187Z,100261.52
2022-08-25T15:29:45.944Z,100261.42
2022-08-25T15:32:18.588Z,100258.79
2022-08-25T15:34:55.086Z,100264.38
2022-08-25T15:37:25.941Z,100254.73
2022-08-25T15:39:56.932Z,100254.71
2022-08-25T15:42:29.027Z,100258.55
2022-08-25T15:44:59.741Z,100254.45
2022-08-25T15:47:32.335Z,100252.41
2022-08-25T15:50:07.598Z,100248.75
2022-08-25T15:52:46.555Z,100248.87
2022-08-25T15:55:19.982Z,100246.96
2022-08-25T15:57:50.902Z,100239.05
2022-08-25T16:00:41.964Z,100233.05
2022-08-25T16:03:13.971Z,100230.32
2022-08-25T16:05:48.585Z,100230.48
2022-08-25T16:08:19.898Z,100231.38
2022-08-25T16:10:50.702Z,100229.02
2022-08-25T16:13:23.042Z,100228.16
2022-08-25T16:15:55.085Z,100226.52
2022-08-25T16:18:27.048Z,100223.19
2022-08-25T16:20:58.192Z,100219.67
2022-08-25T16:23:29.144Z,100218.21
2022-08-25T16:25:59.862Z,100214.39
2022-08-25T16:28:30.042Z,100213.76
2022-08-25T16:31:02.031Z,100216.23
2022-08-25T16:33:33.799Z,100220.25
2022-08-25T16:36:10.290Z,100220.07
2022-08-25T16:38:42.587Z,100208.81
2022-08-25T16:41:22.331Z,100212.08
2022-08-25T16:43:54.005Z,100213.71
2022-08-25T16:46:24.196Z,100215.98
2022-08-25T16:48:55.167Z,100212.81
2022-08-25T16:51:29.844Z,100216.27
2022-08-25T16:54:22.256Z,100218.44
2022-08-25T16:56:55.099Z,100221.51
2022-08-25T16:59:26.863Z,100221.36
2022-08-25T17:01:57.788Z,100221.77
2022-08-25T17:04:32.277Z,100216.69
2022-08-25T17:07:03.447Z,100215.31
2022-08-25T17:09:36.336Z,100215.15
2022-08-25T17:12:09.253Z,100216.42
2022-08-25T17:14:39.962Z,100224.66
2022-08-25T17:17:12.042Z,100225.89
2022-08-25T17:19:45.851Z,100228.21
2022-08-25T17:22:17.331Z,100224.73
2022-08-25T17:24:59.138Z,100225.73
2022-08-25T17:27:30.592Z,100226.12
2022-08-25T17:30:01.590Z,100224.15
2022-08-25T17:32:33.017Z,100222.33
2022-08-25T17:35:04.483Z,100229.16
2022-08-25T17:37:37.822Z,100227.52
2022-08-25T17:40:11.079Z,100236.02
2022-08-25T17:42:41.963Z,100240.14
2022-08-25T17:45:14.362Z,100246.08
2022-08-25T17:47:45.062Z,100251.17
2022-08-25T17:50:15.684Z,100245.91
2022-08-25T17:52:47.621Z,100253.06
2022-08-25T17:55:21.604Z,100259.33
2022-08-25T17:57:52.970Z,100263.83
2022-08-25T18:00:25.284Z,100266.88
2022-08-25T18:02:54.460Z,100269.11
2022-08-25T18:05:26.456Z,100271.95
2022-08-25T18:07:58.830Z,100269.14
2022-08-25T18:10:29.702Z,100271.15
2022-08-25T18:13:02.181Z,100269.27
2022-08-25T18:15:34.397Z,100277.50
2022-08-25T18:18:05.496Z,100284.81
2022-08-25T18:20:36.916Z,100283.92
2022-08-25T18:23:09.916Z,100283.98
2022-08-25T18:25:41.816Z,100284.11
2022-08-25T18:28:13.779Z,100282.34
2022-08-25T18:30:45.078Z,100285.73
2022-08-25T18:33:16.163Z,100285.75
2022-08-25T18:35:47.310Z,100289.17
2022-08-25T18:38:37.468Z,100291.81
2022-08-25T18:41:11.039Z,100295.27
2022-08-25T18:43:42.738Z,100297.16
2022-08-25T18:46:14.021Z,100297.02
2022-08-25T18:48:46.542Z,100294.70
2022-08-25T18:51:18.203Z,100290.13
2022-08-25T18:54:00.851Z,100293.61
2022-08-25T18:56:31.995Z,100292.46
2022-08-25T18:59:04.059Z,100289.21
2022-08-25T19:01:35.503Z,100293.12
2022-08-25T19:04:06.906Z,100295.44
2022-08-25T19:06:38.122Z,100294.13
2022-08-25T19:09:08.762Z,100294.48
2022-08-25T19:11:39.807Z,100291.80
2022-08-25T19:14:12.634Z,100293.17
2022-08-25T19:16:45.524Z,100292.27
2022-08-25T19:19:16.355Z,100291.80
2022-08-25T19:21:47.234Z,100288.63
2022-08-25T19:24:19.975Z,100288.52
2022-08-25T19:26:54.507Z,100295.39
2022-08-25T19:29:30.333Z,100296.41
2022-08-25T19:32:02.482Z,100302.11
2022-08-25T19:34:34.917Z,100304.10
2022-08-25T19:37:07.731Z,100303.29
2022-08-25T19:39:41.917Z,100304.11
2022-08-25T19:42:35.015Z,100301.12
2022-08-25T19:45:08.619Z,100302.52
2022-08-25T19:47:41.366Z,100302.03
2022-08-25T19:50:16.741Z,100302.58
2022-08-25T19:52:49.932Z,100299.59
2022-08-25T19:55:21.922Z,100298.67
2022-08-25T19:57:53.243Z,100302.15
2022-08-25T20:00:29.905Z,100297.40
2022-08-25T20:03:01.400Z,100298.20
2022-08-25T20:05:32.892Z,100294.05
2022-08-25T20:08:05.465Z,100294.36
2022-08-25T20:10:41.864Z,100296.40
2022-08-25T20:13:12.850Z,100296.98
2022-08-25T20:15:47.901Z,100295.11
2022-08-25T20:18:18.673Z,100293.17
2022-08-25T20:20:50.324Z,100292.86
2022-08-25T20:23:38.442Z,100295.83
2022-08-25T20:26:10.835Z,100291.66
2022-08-25T20:28:42.205Z,100288.84
2022-08-25T20:31:16.001Z,100289.94
2022-08-25T20:33:46.935Z,100295.90
2022-08-25T20:36:20.079Z,100290.67
2022-08-25T20:38:51.464Z,100295.36
2022-08-25T20:41:22.346Z,100296.34
2022-08-25T20:43:53.278Z,100294.61
2022-08-25T20:46:34.864Z,100291.44
2022-08-25T20:49:08.922Z,100295.83
2022-08-25T20:51:40.330Z,100294.48
2022-08-25T20:54:15.410Z,100293.38
2022-08-25T20:56:46.463Z,100294.69
2022-08-25T20:59:18.201Z,100291.79
2022-08-25T21:01:50.551Z,100293.34
2022-08-25T21:04:24.521Z,100289.96
2022-08-25T21:06:55.617Z,100286.96
2022-08-25T21:09:28.115Z,100288.77
2022-08-25T21:12:01.416Z,100288.59
2022-08-25T21:14:32.351Z,100288.27
2022-08-25T21:17:04.377Z,100281.41
2022-08-25T21:19:35.845Z,100279.48
2022-08-25T21:22:07.531Z,100281.13
2022-08-25T21:24:38.603Z,100282.89
2022-08-25T21:27:09.502Z,100286.44
2022-08-25T21:29:44.550Z,100281.14
2022-08-25T21:32:26.126Z,100281.40
2022-08-25T21:34:58.382Z,100284.45
2022-08-25T21:37:29.435Z,100281.67
2022-08-25T21:40:00.323Z,100280.38
2022-08-25T21:42:31.186Z,100278.13
2022-08-25T21:45:02.041Z,100278.95
2022-08-25T21:47:33.536Z,100280.88
2022-08-25T21:50:06.172Z,100279.63
2022-08-25T21:52:37.443Z,100280.55
2022-08-25T21:55:15.825Z,100281.00
2022-08-25T21:57:46.970Z,100275.74
2022-08-25T22:00:18.860Z,100271.58
2022-08-25T22:02:52.913Z,100276.21
2022-08-25T22:05:23.754Z,100276.31
2022-08-25T22:07:54.642Z,100274.73
2022-08-25T22:10:26.218Z,100270.30
2022-08-25T22:12:57.274Z,100267.23
2022-08-25T22:15:28.606Z,100266.88
2022-08-25T22:17:59.329Z,100264.17
2022-08-25T22:20:31.779Z,100265.88
2022-08-25T22:23:02.506Z,100267.31
2022-08-25T22:25:33.342Z,100265.34
2022-08-25T22:28:04.722Z,100263.09
2022-08-25T22:30:36.891Z,100263.70
2022-08-25T22:33:09.063Z,100260.69
2022-08-25T22:35:39.931Z,100254.40
2022-08-25T22:38:12.308Z,100252.27
2022-08-25T22:40:43.621Z,100255.61
2022-08-25T22:43:14.558Z,100250.06
2022-08-25T22:45:45.450Z,100245.27
2022-08-25T22:48:16.306Z,100240.23
2022-08-25T22:50:47.193Z,100237.66
2022-08-25T22:53:18.502Z,100234.64
2022-08-25T22:55:49.438Z,100234.23
2022-08-25T22:58:23.073Z,100235.79
2022-08-25T23:00:53.837Z,100235.52
2022-08-25T23:03:24.950Z,100235.21
2022-08-25T23:05:56.486Z,100234.48
2022-08-25T23:08:39.145Z,100232.94
2022-08-25T23:11:13.990Z,100230.15
2022-08-25T23:13:45.670Z,100228.01
2022-08-25T23:16:16.872Z,100225.81
2022-08-25T23:18:48.064Z,100229.56
2022-08-25T23:21:40.764Z,100224.58
2022-08-25T23:24:13.454Z,100221.91
2022-08-25T23:26:45.269Z,100217.80
2022-08-25T23:29:21.822Z,100219.54
2022-08-25T23:31:53.681Z,100213.29
2022-08-25T23:34:25.643Z,100211.02
2022-08-25T23:36:56.908Z,100210.67
2022-08-25T23:39:28.527Z,100209.29
2022-08-25T23:41:59.312Z,100205.85
2022-08-25T23:44:30.747Z,100205.58
2022-08-25T23:47:01.483Z,100204.06
2022-08-25T23:49:32.672Z,100203.79
2022-08-25T23:52:05.270Z,100204.73
2022-08-25T23:54:36.130Z,100203.63
2022-08-25T23:57:07.506Z,100202.54
2022-08-25T23:59:39.841Z,100207.14
